Brownsville, Texas
Current Conditions -  °F | °C
As of 3:53 PM on Saturday 25 Oct 2014 (Local Time) from KBRO Reporting Station
Clear Clear  
Wind Chill: 85°   Ceiling: Unl
Heat Index: 88°   Visibility: 10mi
Dew Point: 67°   Wind: 8mph
Humidity: 55%   Direction: 80°E
Pressure: 30.08"   Gusts: NA
Location:  25.9°N, 97.49°W
Report Text: KBRO 252053Z 08007KT 10SM CLR 29/19 A3008 RMK AO2 SLP186 T02940194 56018 $
Loading
Personal Weather Stations






























Interactive Weather Map
Tropical Storm Tracking
New forecast layout! Learn more

10-Day Weather Forecast

Advertisements
Track Severe Weather on mobile